• Join FlightAware (Why Join?)
  • Login
  • US Flag 
06:28AM EDT


 

Airport Tracker/Info


-or-


 

Live Flight TrackerFlight Track Log ✈ SKW6492 ✈ 27-Jun-2013 ✈ KDEN - KCOD

Flight Track Log - Related Links

Times and Time Zones

All times are in EDT time to prevent confusion due to time zone crossing. See the SKW6492 flight status page for this flight to view local times or setup timezone preferences in your user account.

Time Position Orientation Groundspeed Altitude Reporting Facility
EDT Latitude Longitude Course Direction KTS MPH feet Rate Location/Type
09:47PM 39.8833 -104.5833 346° North 195 224 6,800  Level Denver TRACON
09:49PM 39.9000 -104.5000 75° East 243 280 9,000 2,100 Climbing Denver TRACON
09:50PM 39.9333 -104.4167 62° Northeast 265 305 11,300 2,340 Climbing Denver TRACON
09:50PM 39.9833 -104.4333 346° North 230 265 13,500 2,280 Climbing Denver TRACON
09:52PM 40.3578 -104.8304 346° North  Level FlightAware Approximate
09:52PM 40.0614 -104.4925 330° Northwest 232 267 16,500  Level Denver Center
09:53PM 40.4594 -104.8642 346° North  Level FlightAware Approximate
09:53PM 40.1219 -104.5314 334° Northwest 243 280 17,900  Level Denver Center
09:54PM 40.2061 -104.5744 339° North 314 361 18,500 1,080 Climbing Denver Center
09:55PM 40.2897 -104.6147 340° North 321 369 20,200 1,560 Climbing Denver Center
09:56PM 40.3769 -104.6564 340° North 334 384 21,800 1,320 Climbing Denver Center
09:57PM 40.4686 -104.7006 340° North 328 377 23,000 1,020 Climbing Denver Center
09:58PM 40.5747 -104.7508 340° North 348 400 24,200 840 Climbing Denver Center
09:59PM 40.6594 -104.8136 331° Northwest 351 404 25,000 720 Climbing Denver Center
10:00PM 40.7375 -104.8983 321° Northwest 364 419 25,800 840 Climbing Denver Center
10:01PM 40.8339 -104.9953 323° Northwest 368 423 26,800 1,020 Climbing Denver Center
10:02PM 40.9150 -105.0833 321° Northwest 377 434 27,900 540 Climbing Denver Center
10:03PM 40.9978 -105.1683 322° Northwest 380 437 28,000  Climbing Denver Center
10:04PM 41.0822 -105.2586 321° Northwest 393 452 28,000  Level Denver Center
10:05PM 41.1833 -105.3653 322° Northwest 412 474 28,000  Level Denver Center
10:06PM 41.2706 -105.4575 322° Northwest 416 479 28,000  Level Denver Center
10:07PM 41.3728 -105.5708 320° Northwest 425 489 28,000  Level Denver Center
10:08PM 41.4617 -105.6661 321° Northwest 427 491 28,000  Level Denver Center
10:09PM 41.5494 -105.7603 321° Northwest 425 489 28,000  Level Denver Center
10:11PM 41.6519 -105.8728 321° Northwest 427 491 28,000  Level Denver Center
10:12PM 41.7414 -105.9694 321° Northwest 430 495 28,000  Level Denver Center
10:13PM 41.8461 -106.0839 321° Northwest 431 496 28,000  Level Denver Center
10:14PM 41.9350 -106.1808 321° Northwest 431 496 28,000  Level Denver Center
10:15PM 42.0389 -106.2961 321° Northwest 434 499 28,000  Level Denver Center
10:16PM 42.1278 -106.3936 321° Northwest 431 496 28,000  Level Denver Center
10:17PM 42.2167 -106.4925 321° Northwest 430 495 28,000  Level Denver Center
10:18PM 42.3222 -106.6100 321° Northwest 429 494 28,000  Level Denver Center
10:19PM 42.3931 -106.6897 320° Northwest 430 495 28,000  Level Denver Center
10:20PM 42.5094 -106.8208 320° Northwest 426 490 28,000  Level Denver Center
10:21PM 42.5986 -106.9214 320° Northwest 426 490 28,000  Level Denver Center
10:22PM 42.6992 -107.0356 320° Northwest 428 493 28,000  Level Denver Center
10:23PM 42.7872 -107.1358 320° Northwest 430 495 28,000  Level Denver Center
10:24PM 42.8756 -107.2369 320° Northwest 429 494 28,000 -360 Level Denver Center
10:25PM 42.9886 -107.3706 319° Northwest 426 490 27,200 -1,260 Descending Denver Center
10:26PM 43.0919 -107.4878 320° Northwest 428 493 25,500 -1,620 Descending Denver Center
10:27PM 43.1797 -107.5886 320° Northwest 429 494 24,000 -1,620 Descending Denver Center
10:28PM 43.2661 -107.6900 319° Northwest 429 494 22,200 -2,040 Descending Denver Center
10:29PM 43.3644 -107.8047 320° Northwest 425 489 19,900 -1,860 Descending Denver Center
10:30PM 43.4464 -107.9019 319° Northwest 419 482 18,400 -1,200 Descending Denver Center
10:32PM 43.5514 -108.0253 320° Northwest 397 457 17,200 -1,020 Descending Salt Lake Center
10:33PM 43.6428 -108.1339 319° Northwest 391 450 16,100 -840 Descending Salt Lake Center
10:34PM 43.7236 -108.2317 319° Northwest 391 450 15,600 -540 Descending Salt Lake Center
10:36PM 43.8844 -108.3826 327° Northwest  Level FlightAware Approximate
10:43PM 44.4571 -108.9571 324° Northwest  Level FlightAware Approximate
10:44PM 44.5167 -109.0167 325° Northwest  Level FlightAware Approximate
10:45PM 44.5202 -109.0238 325° Northwest  Level Estimated
10:46PM 44.5167 -109.0167 325° Northwest  Level FlightAware Approximate
10:47PM 44.5202 -109.0238 325° Northwest  Level Estimated